sensor_id;sensor_type;location;lat;lon;timestamp;temperature;humidity
28023;DHT22;67403;50.104;8.758;2023-04-23T00:00:45;12.30;99.90
28023;DHT22;67403;50.104;8.758;2023-04-23T00:03:14;12.30;99.90
28023;DHT22;67403;50.104;8.758;2023-04-23T00:05:44;12.30;99.90
28023;DHT22;67403;50.104;8.758;2023-04-23T00:08:11;12.30;99.90
28023;DHT22;67403;50.104;8.758;2023-04-23T00:10:39;12.30;99.90
28023;DHT22;67403;50.104;8.758;2023-04-23T00:13:08;12.30;99.90
28023;DHT22;67403;50.104;8.758;2023-04-23T00:15:36;12.30;99.90
28023;DHT22;67403;50.104;8.758;2023-04-23T00:18:03;12.30;99.90
28023;DHT22;67403;50.104;8.758;2023-04-23T00:20:31;12.30;99.90
28023;DHT22;67403;50.104;8.758;2023-04-23T00:22:58;12.30;99.90
28023;DHT22;67403;50.104;8.758;2023-04-23T00:25:25;12.30;99.90
28023;DHT22;67403;50.104;8.758;2023-04-23T00:27:52;12.30;99.90
28023;DHT22;67403;50.104;8.758;2023-04-23T00:30:21;12.30;99.90
28023;DHT22;67403;50.104;8.758;2023-04-23T00:32:47;12.30;99.90
28023;DHT22;67403;50.104;8.758;2023-04-23T00:35:14;12.30;99.90
28023;DHT22;67403;50.104;8.758;2023-04-23T00:37:41;12.30;99.90
28023;DHT22;67403;50.104;8.758;2023-04-23T00:40:09;12.20;99.90
28023;DHT22;67403;50.104;8.758;2023-04-23T00:42:37;12.20;99.90
28023;DHT22;67403;50.104;8.758;2023-04-23T00:45:06;12.20;99.90
28023;DHT22;67403;50.104;8.758;2023-04-23T00:47:35;12.20;99.90
28023;DHT22;67403;50.104;8.758;2023-04-23T00:50:02;12.20;99.90
28023;DHT22;67403;50.104;8.758;2023-04-23T00:52:30;12.20;99.90
28023;DHT22;67403;50.104;8.758;2023-04-23T00:54:57;12.20;99.90
28023;DHT22;67403;50.104;8.758;2023-04-23T00:57:24;12.20;99.90
28023;DHT22;67403;50.104;8.758;2023-04-23T00:59:51;12.10;99.90
28023;DHT22;67403;50.104;8.758;2023-04-23T01:02:20;12.10;99.90
28023;DHT22;67403;50.104;8.758;2023-04-23T01:04:49;12.00;99.90
28023;DHT22;67403;50.104;8.758;2023-04-23T01:07:16;12.10;99.90
28023;DHT22;67403;50.104;8.758;2023-04-23T01:09:43;12.00;99.90
28023;DHT22;67403;50.104;8.758;2023-04-23T01:12:10;12.00;99.90
28023;DHT22;67403;50.104;8.758;2023-04-23T01:14:39;12.00;99.90
28023;DHT22;67403;50.104;8.758;2023-04-23T01:17:06;12.00;99.90
28023;DHT22;67403;50.104;8.758;2023-04-23T01:19:34;11.90;99.90
28023;DHT22;67403;50.104;8.758;2023-04-23T01:22:08;11.90;99.90
28023;DHT22;67403;50.104;8.758;2023-04-23T01:24:35;12.00;99.90
28023;DHT22;67403;50.104;8.758;2023-04-23T01:27:02;12.00;99.90
28023;DHT22;67403;50.104;8.758;2023-04-23T01:29:30;11.90;99.90
28023;DHT22;67403;50.104;8.758;2023-04-23T01:31:58;11.90;99.90
28023;DHT22;67403;50.104;8.758;2023-04-23T01:34:25;11.90;99.90
28023;DHT22;67403;50.104;8.758;2023-04-23T01:36:53;11.90;99.90
28023;DHT22;67403;50.104;8.758;2023-04-23T01:39:21;11.90;99.90
28023;DHT22;67403;50.104;8.758;2023-04-23T01:41:48;11.90;99.90
28023;DHT22;67403;50.104;8.758;2023-04-23T01:44:16;11.90;99.90
28023;DHT22;67403;50.104;8.758;2023-04-23T01:46:42;11.90;99.90
28023;DHT22;67403;50.104;8.758;2023-04-23T01:49:10;11.90;99.90
28023;DHT22;67403;50.104;8.758;2023-04-23T01:51:37;11.90;99.90
28023;DHT22;67403;50.104;8.758;2023-04-23T01:54:04;11.90;99.90
28023;DHT22;67403;50.104;8.758;2023-04-23T01:56:32;11.90;99.90
28023;DHT22;67403;50.104;8.758;2023-04-23T01:59:00;11.90;99.90
28023;DHT22;67403;50.104;8.758;2023-04-23T02:01:40;11.90;99.90
28023;DHT22;67403;50.104;8.758;2023-04-23T02:04:09;11.90;99.90
28023;DHT22;67403;50.104;8.758;2023-04-23T02:06:36;11.80;99.90
28023;DHT22;67403;50.104;8.758;2023-04-23T02:09:03;11.90;99.90
28023;DHT22;67403;50.104;8.758;2023-04-23T02:11:31;11.80;99.90
28023;DHT22;67403;50.104;8.758;2023-04-23T02:13:59;11.80;99.90
28023;DHT22;67403;50.104;8.758;2023-04-23T02:16:26;11.80;99.90
28023;DHT22;67403;50.104;8.758;2023-04-23T02:18:53;11.80;99.90
28023;DHT22;67403;50.104;8.758;2023-04-23T02:21:20;11.80;99.90
28023;DHT22;67403;50.104;8.758;2023-04-23T02:23:47;11.80;99.90
28023;DHT22;67403;50.104;8.758;2023-04-23T02:26:15;11.80;99.90
28023;DHT22;67403;50.104;8.758;2023-04-23T02:28:44;11.80;99.90
28023;DHT22;67403;50.104;8.758;2023-04-23T02:31:11;11.80;99.90
28023;DHT22;67403;50.104;8.758;2023-04-23T02:33:39;11.80;99.90
28023;DHT22;67403;50.104;8.758;2023-04-23T02:36:07;11.80;99.90
28023;DHT22;67403;50.104;8.758;2023-04-23T02:38:35;11.80;99.90
28023;DHT22;67403;50.104;8.758;2023-04-23T02:41:02;11.80;99.90
28023;DHT22;67403;50.104;8.758;2023-04-23T02:43:29;11.70;99.90
28023;DHT22;67403;50.104;8.758;2023-04-23T02:45:57;11.80;99.90
28023;DHT22;67403;50.104;8.758;2023-04-23T02:48:24;11.70;99.90
28023;DHT22;67403;50.104;8.758;2023-04-23T02:50:52;11.70;99.90
28023;DHT22;67403;50.104;8.758;2023-04-23T02:53:18;11.80;99.90
28023;DHT22;67403;50.104;8.758;2023-04-23T02:55:45;11.70;99.90
28023;DHT22;67403;50.104;8.758;2023-04-23T02:58:12;11.70;99.90
28023;DHT22;67403;50.104;8.758;2023-04-23T03:00:39;11.70;99.90
28023;DHT22;67403;50.104;8.758;2023-04-23T03:03:07;11.70;99.90
28023;DHT22;67403;50.104;8.758;2023-04-23T03:05:34;11.70;99.90
28023;DHT22;67403;50.104;8.758;2023-04-23T03:08:01;11.70;99.90
28023;DHT22;67403;50.104;8.758;2023-04-23T03:10:28;11.70;99.90
28023;DHT22;67403;50.104;8.758;2023-04-23T03:12:55;11.70;99.90
28023;DHT22;67403;50.104;8.758;2023-04-23T03:15:22;11.70;99.90
28023;DHT22;67403;50.104;8.758;2023-04-23T03:17:49;11.70;99.90
28023;DHT22;67403;50.104;8.758;2023-04-23T03:20:19;11.70;99.90
28023;DHT22;67403;50.104;8.758;2023-04-23T03:22:46;11.70;99.90
28023;DHT22;67403;50.104;8.758;2023-04-23T03:25:13;11.70;99.90
28023;DHT22;67403;50.104;8.758;2023-04-23T03:27:41;11.70;99.90
28023;DHT22;67403;50.104;8.758;2023-04-23T03:30:09;11.70;99.90
28023;DHT22;67403;50.104;8.758;2023-04-23T03:32:37;11.70;99.90
28023;DHT22;67403;50.104;8.758;2023-04-23T03:35:04;11.70;99.90
28023;DHT22;67403;50.104;8.758;2023-04-23T03:37:32;11.70;99.90
28023;DHT22;67403;50.104;8.758;2023-04-23T03:39:59;11.70;99.90
28023;DHT22;67403;50.104;8.758;2023-04-23T03:42:28;11.70;99.90
28023;DHT22;67403;50.104;8.758;2023-04-23T03:44:55;11.70;99.90
28023;DHT22;67403;50.104;8.758;2023-04-23T03:47:22;11.70;99.90
28023;DHT22;67403;50.104;8.758;2023-04-23T03:49:48;11.70;99.90
28023;DHT22;67403;50.104;8.758;2023-04-23T03:52:15;11.70;99.90
28023;DHT22;67403;50.104;8.758;2023-04-23T03:54:43;11.60;99.90
28023;DHT22;67403;50.104;8.758;2023-04-23T03:57:10;11.70;99.90
28023;DHT22;67403;50.104;8.758;2023-04-23T03:59:37;11.70;99.90
28023;DHT22;67403;50.104;8.758;2023-04-23T04:02:04;11.60;99.90
28023;DHT22;67403;50.104;8.758;2023-04-23T04:04:32;11.60;99.90
28023;DHT22;67403;50.104;8.758;2023-04-23T04:06:59;11.60;99.90
28023;DHT22;67403;50.104;8.758;2023-04-23T04:09:26;11.60;99.90
28023;DHT22;67403;50.104;8.758;2023-04-23T04:11:54;11.60;99.90
28023;DHT22;67403;50.104;8.758;2023-04-23T04:14:21;11.60;99.90
28023;DHT22;67403;50.104;8.758;2023-04-23T04:16:48;11.60;99.90
28023;DHT22;67403;50.104;8.758;2023-04-23T04:19:15;11.60;99.90
28023;DHT22;67403;50.104;8.758;2023-04-23T04:21:42;11.60;99.90
28023;DHT22;67403;50.104;8.758;2023-04-23T04:24:09;11.60;99.90
28023;DHT22;67403;50.104;8.758;2023-04-23T04:26:37;11.60;99.90
28023;DHT22;67403;50.104;8.758;2023-04-23T04:29:05;11.60;99.90
28023;DHT22;67403;50.104;8.758;2023-04-23T04:31:34;11.60;99.90
28023;DHT22;67403;50.104;8.758;2023-04-23T04:34:01;11.60;99.90
28023;DHT22;67403;50.104;8.758;2023-04-23T04:36:28;11.60;99.90
28023;DHT22;67403;50.104;8.758;2023-04-23T04:38:55;11.60;99.90
28023;DHT22;67403;50.104;8.758;2023-04-23T04:41:23;11.60;99.90
28023;DHT22;67403;50.104;8.758;2023-04-23T04:43:52;11.60;99.90
28023;DHT22;67403;50.104;8.758;2023-04-23T04:46:21;11.60;99.90
28023;DHT22;67403;50.104;8.758;2023-04-23T04:48:48;11.60;99.90
28023;DHT22;67403;50.104;8.758;2023-04-23T04:51:15;11.60;99.90
28023;DHT22;67403;50.104;8.758;2023-04-23T04:53:42;11.50;99.90
28023;DHT22;67403;50.104;8.758;2023-04-23T04:56:09;11.60;99.90
28023;DHT22;67403;50.104;8.758;2023-04-23T04:58:36;11.60;99.90
28023;DHT22;67403;50.104;8.758;2023-04-23T05:01:03;11.60;99.90
28023;DHT22;67403;50.104;8.758;2023-04-23T05:03:31;11.60;99.90
28023;DHT22;67403;50.104;8.758;2023-04-23T05:05:58;11.70;99.90
28023;DHT22;67403;50.104;8.758;2023-04-23T05:08:25;11.60;99.90
28023;DHT22;67403;50.104;8.758;2023-04-23T05:10:53;11.60;99.90
28023;DHT22;67403;50.104;8.758;2023-04-23T05:13:20;11.60;99.90
28023;DHT22;67403;50.104;8.758;2023-04-23T05:15:47;11.60;99.90
28023;DHT22;67403;50.104;8.758;2023-04-23T05:18:14;11.60;99.90
28023;DHT22;67403;50.104;8.758;2023-04-23T05:20:42;11.60;99.90
28023;DHT22;67403;50.104;8.758;2023-04-23T05:23:09;11.70;99.90
28023;DHT22;67403;50.104;8.758;2023-04-23T05:25:36;11.60;99.90
28023;DHT22;67403;50.104;8.758;2023-04-23T05:28:03;11.60;99.90
28023;DHT22;67403;50.104;8.758;2023-04-23T05:30:30;11.60;99.90
28023;DHT22;67403;50.104;8.758;2023-04-23T05:32:56;11.60;99.90
28023;DHT22;67403;50.104;8.758;2023-04-23T05:35:23;11.80;99.90
28023;DHT22;67403;50.104;8.758;2023-04-23T05:37:51;11.90;99.90
28023;DHT22;67403;50.104;8.758;2023-04-23T05:40:18;12.00;99.90
28023;DHT22;67403;50.104;8.758;2023-04-23T05:42:45;12.10;99.90
28023;DHT22;67403;50.104;8.758;2023-04-23T05:45:12;12.00;99.90
28023;DHT22;67403;50.104;8.758;2023-04-23T05:47:39;12.10;99.90
28023;DHT22;67403;50.104;8.758;2023-04-23T05:50:06;12.00;99.90
28023;DHT22;67403;50.104;8.758;2023-04-23T05:52:34;12.00;99.90
28023;DHT22;67403;50.104;8.758;2023-04-23T05:55:04;11.90;99.90
28023;DHT22;67403;50.104;8.758;2023-04-23T05:57:31;11.90;99.90
28023;DHT22;67403;50.104;8.758;2023-04-23T05:59:58;11.90;99.90
28023;DHT22;67403;50.104;8.758;2023-04-23T06:02:25;11.90;99.90
28023;DHT22;67403;50.104;8.758;2023-04-23T06:04:53;12.00;99.90
28023;DHT22;67403;50.104;8.758;2023-04-23T06:07:20;12.10;99.90
28023;DHT22;67403;50.104;8.758;2023-04-23T06:09:47;12.30;99.90
28023;DHT22;67403;50.104;8.758;2023-04-23T06:12:16;12.40;99.90
28023;DHT22;67403;50.104;8.758;2023-04-23T06:14:43;12.50;99.90
28023;DHT22;67403;50.104;8.758;2023-04-23T06:17:10;12.40;99.90
28023;DHT22;67403;50.104;8.758;2023-04-23T06:19:37;12.50;99.90
28023;DHT22;67403;50.104;8.758;2023-04-23T06:22:03;12.50;99.90
28023;DHT22;67403;50.104;8.758;2023-04-23T06:24:31;12.60;99.90
28023;DHT22;67403;50.104;8.758;2023-04-23T06:26:57;12.50;99.90
28023;DHT22;67403;50.104;8.758;2023-04-23T06:29:26;12.50;99.90
28023;DHT22;67403;50.104;8.758;2023-04-23T06:31:54;12.50;99.90
28023;DHT22;67403;50.104;8.758;2023-04-23T06:34:21;12.40;99.90
28023;DHT22;67403;50.104;8.758;2023-04-23T06:36:49;12.50;99.90
28023;DHT22;67403;50.104;8.758;2023-04-23T06:39:16;12.50;99.90
28023;DHT22;67403;50.104;8.758;2023-04-23T06:41:43;12.50;99.90
28023;DHT22;67403;50.104;8.758;2023-04-23T06:44:10;12.70;99.90
28023;DHT22;67403;50.104;8.758;2023-04-23T06:46:38;12.80;99.90
28023;DHT22;67403;50.104;8.758;2023-04-23T06:49:05;13.00;99.90
28023;DHT22;67403;50.104;8.758;2023-04-23T06:51:33;13.20;99.90
28023;DHT22;67403;50.104;8.758;2023-04-23T06:54:00;13.10;99.90
28023;DHT22;67403;50.104;8.758;2023-04-23T06:56:27;13.40;99.90
28023;DHT22;67403;50.104;8.758;2023-04-23T06:58:54;13.50;99.90
28023;DHT22;67403;50.104;8.758;2023-04-23T07:01:20;13.50;99.90
28023;DHT22;67403;50.104;8.758;2023-04-23T07:03:49;13.40;99.90
28023;DHT22;67403;50.104;8.758;2023-04-23T07:06:18;13.40;99.90
28023;DHT22;67403;50.104;8.758;2023-04-23T07:08:45;13.30;99.90
28023;DHT22;67403;50.104;8.758;2023-04-23T07:11:13;13.40;99.90
28023;DHT22;67403;50.104;8.758;2023-04-23T07:13:40;13.50;99.90
28023;DHT22;67403;50.104;8.758;2023-04-23T07:16:07;13.40;99.90
28023;DHT22;67403;50.104;8.758;2023-04-23T07:18:34;13.50;99.90
28023;DHT22;67403;50.104;8.758;2023-04-23T07:21:02;13.80;99.90
28023;DHT22;67403;50.104;8.758;2023-04-23T07:23:29;13.80;99.90
28023;DHT22;67403;50.104;8.758;2023-04-23T07:25:56;13.70;99.90
28023;DHT22;67403;50.104;8.758;2023-04-23T07:28:23;13.80;99.90
28023;DHT22;67403;50.104;8.758;2023-04-23T07:30:50;13.90;99.90
28023;DHT22;67403;50.104;8.758;2023-04-23T07:33:17;14.00;99.90
28023;DHT22;67403;50.104;8.758;2023-04-23T07:35:44;14.20;99.90
28023;DHT22;67403;50.104;8.758;2023-04-23T07:38:13;14.40;99.90
28023;DHT22;67403;50.104;8.758;2023-04-23T07:40:39;14.50;99.90
28023;DHT22;67403;50.104;8.758;2023-04-23T07:43:06;14.60;99.90
28023;DHT22;67403;50.104;8.758;2023-04-23T07:45:33;14.80;99.90
28023;DHT22;67403;50.104;8.758;2023-04-23T07:48:00;15.00;99.90
28023;DHT22;67403;50.104;8.758;2023-04-23T07:50:28;15.30;99.90
28023;DHT22;67403;50.104;8.758;2023-04-23T07:52:55;15.00;99.90
28023;DHT22;67403;50.104;8.758;2023-04-23T07:55:23;15.00;99.90
28023;DHT22;67403;50.104;8.758;2023-04-23T07:57:50;15.00;99.90
28023;DHT22;67403;50.104;8.758;2023-04-23T08:00:17;15.30;99.90
28023;DHT22;67403;50.104;8.758;2023-04-23T08:02:44;15.30;99.90
28023;DHT22;67403;50.104;8.758;2023-04-23T08:05:11;15.00;99.90
28023;DHT22;67403;50.104;8.758;2023-04-23T08:07:38;14.80;99.90
28023;DHT22;67403;50.104;8.758;2023-04-23T08:10:06;14.60;99.90
28023;DHT22;67403;50.104;8.758;2023-04-23T08:12:34;14.60;99.90
28023;DHT22;67403;50.104;8.758;2023-04-23T08:15:01;14.50;99.90
28023;DHT22;67403;50.104;8.758;2023-04-23T08:17:29;14.50;99.90
28023;DHT22;67403;50.104;8.758;2023-04-23T08:19:56;14.60;99.90
28023;DHT22;67403;50.104;8.758;2023-04-23T08:22:22;14.60;99.90
28023;DHT22;67403;50.104;8.758;2023-04-23T08:24:49;14.90;99.90
28023;DHT22;67403;50.104;8.758;2023-04-23T08:27:16;15.00;99.90
28023;DHT22;67403;50.104;8.758;2023-04-23T08:29:44;15.10;99.90
28023;DHT22;67403;50.104;8.758;2023-04-23T08:32:11;15.50;99.90
28023;DHT22;67403;50.104;8.758;2023-04-23T08:34:38;16.00;99.90
28023;DHT22;67403;50.104;8.758;2023-04-23T08:37:05;16.40;99.90
28023;DHT22;67403;50.104;8.758;2023-04-23T08:39:33;15.90;99.90
28023;DHT22;67403;50.104;8.758;2023-04-23T08:42:09;15.30;99.90
28023;DHT22;67403;50.104;8.758;2023-04-23T08:44:40;15.40;99.90
28023;DHT22;67403;50.104;8.758;2023-04-23T08:47:10;15.50;99.90
28023;DHT22;67403;50.104;8.758;2023-04-23T08:49:40;15.80;99.90
28023;DHT22;67403;50.104;8.758;2023-04-23T08:52:14;15.90;99.90
28023;DHT22;67403;50.104;8.758;2023-04-23T08:54:45;15.80;99.90
28023;DHT22;67403;50.104;8.758;2023-04-23T08:57:15;15.80;99.90
28023;DHT22;67403;50.104;8.758;2023-04-23T08:59:43;16.10;99.90
28023;DHT22;67403;50.104;8.758;2023-04-23T09:02:12;16.60;99.90
28023;DHT22;67403;50.104;8.758;2023-04-23T09:04:40;16.80;99.90
28023;DHT22;67403;50.104;8.758;2023-04-23T09:07:07;16.80;99.90
28023;DHT22;67403;50.104;8.758;2023-04-23T09:09:36;16.60;99.90
28023;DHT22;67403;50.104;8.758;2023-04-23T09:12:04;16.60;99.90
28023;DHT22;67403;50.104;8.758;2023-04-23T09:14:32;15.90;99.90
28023;DHT22;67403;50.104;8.758;2023-04-23T09:17:00;15.50;99.90
28023;DHT22;67403;50.104;8.758;2023-04-23T09:19:29;15.60;99.90
28023;DHT22;67403;50.104;8.758;2023-04-23T09:21:57;15.70;99.90
28023;DHT22;67403;50.104;8.758;2023-04-23T09:24:25;15.70;99.90
28023;DHT22;67403;50.104;8.758;2023-04-23T09:26:53;15.90;99.90
28023;DHT22;67403;50.104;8.758;2023-04-23T09:29:22;16.10;99.90
28023;DHT22;67403;50.104;8.758;2023-04-23T09:31:50;16.60;99.90
28023;DHT22;67403;50.104;8.758;2023-04-23T09:34:18;16.80;99.90
28023;DHT22;67403;50.104;8.758;2023-04-23T09:36:47;17.30;99.90
28023;DHT22;67403;50.104;8.758;2023-04-23T09:39:16;17.40;99.90
28023;DHT22;67403;50.104;8.758;2023-04-23T09:41:43;17.40;99.90
28023;DHT22;67403;50.104;8.758;2023-04-23T09:44:11;17.10;99.90
28023;DHT22;67403;50.104;8.758;2023-04-23T09:46:43;16.90;99.90
28023;DHT22;67403;50.104;8.758;2023-04-23T09:49:11;16.90;99.90
28023;DHT22;67403;50.104;8.758;2023-04-23T09:51:39;17.60;99.90
28023;DHT22;67403;50.104;8.758;2023-04-23T09:54:12;17.80;99.90
28023;DHT22;67403;50.104;8.758;2023-04-23T09:56:39;17.70;99.90
28023;DHT22;67403;50.104;8.758;2023-04-23T09:59:19;17.60;99.90
28023;DHT22;67403;50.104;8.758;2023-04-23T10:01:46;17.20;99.90
28023;DHT22;67403;50.104;8.758;2023-04-23T10:04:16;17.40;99.90
28023;DHT22;67403;50.104;8.758;2023-04-23T10:06:44;17.40;99.90
28023;DHT22;67403;50.104;8.758;2023-04-23T10:09:12;17.40;99.90
28023;DHT22;67403;50.104;8.758;2023-04-23T10:11:40;17.70;99.90
28023;DHT22;67403;50.104;8.758;2023-04-23T10:14:08;17.20;99.90
28023;DHT22;67403;50.104;8.758;2023-04-23T10:16:35;18.00;99.90
28023;DHT22;67403;50.104;8.758;2023-04-23T10:19:03;19.20;99.90
28023;DHT22;67403;50.104;8.758;2023-04-23T10:21:32;20.60;99.90
28023;DHT22;67403;50.104;8.758;2023-04-23T10:24:01;21.60;99.90
28023;DHT22;67403;50.104;8.758;2023-04-23T10:26:30;22.70;99.90
28023;DHT22;67403;50.104;8.758;2023-04-23T10:28:59;22.30;99.90
28023;DHT22;67403;50.104;8.758;2023-04-23T10:31:27;21.80;99.90
28023;DHT22;67403;50.104;8.758;2023-04-23T10:33:56;20.90;99.90
28023;DHT22;67403;50.104;8.758;2023-04-23T10:36:24;20.20;99.90
28023;DHT22;67403;50.104;8.758;2023-04-23T10:38:52;19.10;99.90
28023;DHT22;67403;50.104;8.758;2023-04-23T10:41:22;17.90;99.90
28023;DHT22;67403;50.104;8.758;2023-04-23T10:43:54;17.50;99.90
28023;DHT22;67403;50.104;8.758;2023-04-23T10:46:27;17.70;99.90
28023;DHT22;67403;50.104;8.758;2023-04-23T10:49:05;18.20;99.90
28023;DHT22;67403;50.104;8.758;2023-04-23T10:51:33;18.60;99.90
28023;DHT22;67403;50.104;8.758;2023-04-23T10:54:02;18.70;99.90
28023;DHT22;67403;50.104;8.758;2023-04-23T10:56:29;18.60;99.90
28023;DHT22;67403;50.104;8.758;2023-04-23T10:58:57;18.40;99.90
28023;DHT22;67403;50.104;8.758;2023-04-23T11:01:26;18.70;99.90
28023;DHT22;67403;50.104;8.758;2023-04-23T11:03:53;19.30;99.90
28023;DHT22;67403;50.104;8.758;2023-04-23T11:06:55;19.60;99.90
28023;DHT22;67403;50.104;8.758;2023-04-23T11:09:38;19.90;99.90
28023;DHT22;67403;50.104;8.758;2023-04-23T11:12:07;21.10;99.90
28023;DHT22;67403;50.104;8.758;2023-04-23T11:14:45;21.60;99.90
28023;DHT22;67403;50.104;8.758;2023-04-23T11:17:13;21.40;99.90
28023;DHT22;67403;50.104;8.758;2023-04-23T11:22:34;21.60;99.90
28023;DHT22;67403;50.104;8.758;2023-04-23T11:25:01;21.90;99.90
28023;DHT22;67403;50.104;8.758;2023-04-23T11:27:29;20.60;99.90
28023;DHT22;67403;50.104;8.758;2023-04-23T11:29:57;19.40;99.90
28023;DHT22;67403;50.104;8.758;2023-04-23T11:32:26;19.70;99.90
28023;DHT22;67403;50.104;8.758;2023-04-23T11:34:54;19.60;99.90
28023;DHT22;67403;50.104;8.758;2023-04-23T11:37:23;19.80;99.90
28023;DHT22;67403;50.104;8.758;2023-04-23T11:39:50;19.80;99.90
28023;DHT22;67403;50.104;8.758;2023-04-23T11:42:17;19.60;99.90
28023;DHT22;67403;50.104;8.758;2023-04-23T11:44:45;19.60;99.90
28023;DHT22;67403;50.104;8.758;2023-04-23T11:47:14;19.60;99.90
28023;DHT22;67403;50.104;8.758;2023-04-23T11:49:43;19.30;99.90
28023;DHT22;67403;50.104;8.758;2023-04-23T11:52:10;19.00;99.90
28023;DHT22;67403;50.104;8.758;2023-04-23T11:54:39;19.20;99.90
28023;DHT22;67403;50.104;8.758;2023-04-23T11:57:07;19.50;99.90
28023;DHT22;67403;50.104;8.758;2023-04-23T11:59:34;19.20;99.90
28023;DHT22;67403;50.104;8.758;2023-04-23T12:02:01;19.40;99.90
28023;DHT22;67403;50.104;8.758;2023-04-23T12:04:30;19.00;99.90
28023;DHT22;67403;50.104;8.758;2023-04-23T12:06:58;19.00;99.90
28023;DHT22;67403;50.104;8.758;2023-04-23T12:09:26;19.30;99.90
28023;DHT22;67403;50.104;8.758;2023-04-23T12:11:55;19.70;99.90
28023;DHT22;67403;50.104;8.758;2023-04-23T12:14:25;20.60;99.90
28023;DHT22;67403;50.104;8.758;2023-04-23T12:16:53;21.40;99.90
28023;DHT22;67403;50.104;8.758;2023-04-23T12:19:25;21.40;99.90
28023;DHT22;67403;50.104;8.758;2023-04-23T12:21:55;21.30;99.90
28023;DHT22;67403;50.104;8.758;2023-04-23T12:24:23;21.80;99.90
28023;DHT22;67403;50.104;8.758;2023-04-23T12:26:52;20.90;99.90
28023;DHT22;67403;50.104;8.758;2023-04-23T12:29:21;20.70;99.90
28023;DHT22;67403;50.104;8.758;2023-04-23T12:31:49;20.70;99.90
28023;DHT22;67403;50.104;8.758;2023-04-23T12:34:17;20.80;99.90
28023;DHT22;67403;50.104;8.758;2023-04-23T12:36:49;21.40;99.90
28023;DHT22;67403;50.104;8.758;2023-04-23T12:39:23;21.50;99.90
28023;DHT22;67403;50.104;8.758;2023-04-23T12:41:51;22.00;99.90
28023;DHT22;67403;50.104;8.758;2023-04-23T12:44:19;22.10;99.90
28023;DHT22;67403;50.104;8.758;2023-04-23T12:46:49;23.80;98.40
28023;DHT22;67403;50.104;8.758;2023-04-23T12:49:16;23.20;95.30
28023;DHT22;67403;50.104;8.758;2023-04-23T12:51:43;23.30;95.40
28023;DHT22;67403;50.104;8.758;2023-04-23T12:54:10;22.90;93.80
28023;DHT22;67403;50.104;8.758;2023-04-23T12:56:38;21.80;95.50
28023;DHT22;67403;50.104;8.758;2023-04-23T12:59:05;22.90;96.20
28023;DHT22;67403;50.104;8.758;2023-04-23T13:01:32;24.60;92.50
28023;DHT22;67403;50.104;8.758;2023-04-23T13:03:59;26.70;89.10
28023;DHT22;67403;50.104;8.758;2023-04-23T13:06:26;27.10;82.40
28023;DHT22;67403;50.104;8.758;2023-04-23T13:08:54;25.60;82.00
28023;DHT22;67403;50.104;8.758;2023-04-23T13:11:21;25.90;80.10
28023;DHT22;67403;50.104;8.758;2023-04-23T13:13:50;23.20;83.90
28023;DHT22;67403;50.104;8.758;2023-04-23T13:16:17;23.30;88.80
28023;DHT22;67403;50.104;8.758;2023-04-23T13:18:44;24.20;83.60
28023;DHT22;67403;50.104;8.758;2023-04-23T13:21:11;23.20;81.80
28023;DHT22;67403;50.104;8.758;2023-04-23T13:23:38;21.20;87.70
28023;DHT22;67403;50.104;8.758;2023-04-23T13:26:05;20.60;90.90
28023;DHT22;67403;50.104;8.758;2023-04-23T13:28:33;20.20;92.50
28023;DHT22;67403;50.104;8.758;2023-04-23T13:31:01;20.60;92.50
28023;DHT22;67403;50.104;8.758;2023-04-23T13:33:29;20.50;92.20
28023;DHT22;67403;50.104;8.758;2023-04-23T13:35:56;20.20;92.00
28023;DHT22;67403;50.104;8.758;2023-04-23T13:38:24;19.70;92.90
28023;DHT22;67403;50.104;8.758;2023-04-23T13:40:51;19.60;93.10
28023;DHT22;67403;50.104;8.758;2023-04-23T13:43:18;20.40;93.30
28023;DHT22;67403;50.104;8.758;2023-04-23T13:45:45;23.10;90.10
28023;DHT22;67403;50.104;8.758;2023-04-23T13:48:13;26.00;77.80
28023;DHT22;67403;50.104;8.758;2023-04-23T13:50:41;25.20;70.80
28023;DHT22;67403;50.104;8.758;2023-04-23T13:53:09;23.90;72.80
28023;DHT22;67403;50.104;8.758;2023-04-23T13:55:37;24.10;70.10
28023;DHT22;67403;50.104;8.758;2023-04-23T13:58:04;24.30;69.20
28023;DHT22;67403;50.104;8.758;2023-04-23T14:00:32;23.20;72.00
28023;DHT22;67403;50.104;8.758;2023-04-23T14:02:59;23.40;73.10
28023;DHT22;67403;50.104;8.758;2023-04-23T14:05:29;23.20;72.50
28023;DHT22;67403;50.104;8.758;2023-04-23T14:07:56;22.50;74.80
28023;DHT22;67403;50.104;8.758;2023-04-23T14:10:22;23.60;72.90
28023;DHT22;67403;50.104;8.758;2023-04-23T14:12:50;22.90;74.80
28023;DHT22;67403;50.104;8.758;2023-04-23T14:15:17;24.20;75.40
28023;DHT22;67403;50.104;8.758;2023-04-23T14:17:44;25.40;69.90
28023;DHT22;67403;50.104;8.758;2023-04-23T14:20:11;25.40;66.20
28023;DHT22;67403;50.104;8.758;2023-04-23T14:22:41;23.70;66.60
28023;DHT22;67403;50.104;8.758;2023-04-23T14:25:10;24.30;66.10
28023;DHT22;67403;50.104;8.758;2023-04-23T14:27:44;25.30;67.40
28023;DHT22;67403;50.104;8.758;2023-04-23T14:30:14;25.50;66.00
28023;DHT22;67403;50.104;8.758;2023-04-23T14:32:42;26.00;65.80
28023;DHT22;67403;50.104;8.758;2023-04-23T14:35:11;26.20;64.40
28023;DHT22;67403;50.104;8.758;2023-04-23T14:37:38;25.60;64.90
28023;DHT22;67403;50.104;8.758;2023-04-23T14:40:10;25.70;63.20
28023;DHT22;67403;50.104;8.758;2023-04-23T14:42:40;25.60;62.70
28023;DHT22;67403;50.104;8.758;2023-04-23T14:45:08;24.70;64.80
28023;DHT22;67403;50.104;8.758;2023-04-23T14:47:34;25.00;65.00
28023;DHT22;67403;50.104;8.758;2023-04-23T14:50:02;25.20;64.80
28023;DHT22;67403;50.104;8.758;2023-04-23T14:52:29;22.90;66.10
28023;DHT22;67403;50.104;8.758;2023-04-23T14:54:56;22.40;69.70
28023;DHT22;67403;50.104;8.758;2023-04-23T14:57:24;21.90;70.80
28023;DHT22;67403;50.104;8.758;2023-04-23T14:59:51;21.50;72.30
28023;DHT22;67403;50.104;8.758;2023-04-23T15:02:18;21.80;72.90
28023;DHT22;67403;50.104;8.758;2023-04-23T15:04:46;21.60;72.90
28023;DHT22;67403;50.104;8.758;2023-04-23T15:07:12;21.70;72.90
28023;DHT22;67403;50.104;8.758;2023-04-23T15:09:39;21.50;74.40
28023;DHT22;67403;50.104;8.758;2023-04-23T15:12:40;21.00;77.10
28023;DHT22;67403;50.104;8.758;2023-04-23T15:15:14;20.90;78.30
28023;DHT22;67403;50.104;8.758;2023-04-23T15:17:43;20.70;79.20
28023;DHT22;67403;50.104;8.758;2023-04-23T15:20:10;20.60;78.80
28023;DHT22;67403;50.104;8.758;2023-04-23T15:22:37;20.50;79.50
28023;DHT22;67403;50.104;8.758;2023-04-23T15:25:05;20.60;79.20
28023;DHT22;67403;50.104;8.758;2023-04-23T15:27:32;20.50;79.70
28023;DHT22;67403;50.104;8.758;2023-04-23T15:30:00;20.20;79.20
28023;DHT22;67403;50.104;8.758;2023-04-23T15:32:27;20.30;79.70
28023;DHT22;67403;50.104;8.758;2023-04-23T15:34:54;20.10;80.50
28023;DHT22;67403;50.104;8.758;2023-04-23T15:37:20;19.80;80.60